Airfield :







YOU CAN JOIN US ON...

 
LOGIN :

Register | Disclaimer

   EN    FR    IT 

 









Legend :    VFR   Marginal VFR   IFR   Intensive IFR   Very Intensive IFR
Visi :
Ceiling :
>= 8 km
>= 3000ft
5 to 8 km
1000 to 3000 ft
1500m to 5 km
500 to 1000 ft
800 to 1500m
200 to 500 ft
< 800m
< 200 ft
Symbols :   Thunderstorms  Fog  Heavy snow  Heavy precipitations  Wind > 20 kt







- Airport Elevation : 271 ft


KBAF - Barnes Municipal

CURRENT METAR :
  • 250353Z AUTO 30003KT 10SM CLR 07/01 A2992 RMK AO2 SLP132 T00670011

EXPIRED METARs :
  • 250253Z AUTO 34007KT 10SM CLR 07/01 A2990 RMK AO2 SLP127 T00670011 51013
  • 250153Z 35009KT 10SM CLR 08/01 A2990 RMK AO2 SLP127 T00780011

TAF KBAF
Valid from the 25 at 00:00 until the 26 at 00:00 UTC


242327Z 2500/2524 32012G21KT P6SM SKC
FM250100 32008KT P6SM FEW250
FM250600 00000KT P6SM SKC
FM251600 25005KT P6SM FEW080
FM251800 21005KT P6SM FEW080
FM252100 21006KT P6SM FEW050
KZBW FIR / North America



MET'MAP, your aeronautical weather chart ! - Copyright ORBIFLY December 2007 - Disclaimer

ORBIFLY MET'MAP TEAM :

Programming & Development : Alexandra Zaïnal
Concept & Development : Baudouin d'Aumeries
Co-Development & Prog : Marc-Olivier Méhu
Technical & hardware support : Manuel Goepfert

Contact : metmap@orbifly.com




SOURCES & CREDITS :

   NOAA